sensor_id;sensor_type;location;lat;lon;timestamp;P1;durP1;ratioP1;P2;durP2;ratioP2
59681;SDS011;45548;39.530;-9.118;2022-10-17T07:46:37;456.83;;;86.13;;
59681;SDS011;45548;39.530;-9.118;2022-10-17T07:49:03;1188.70;;;114.25;;
59681;SDS011;45548;39.530;-9.118;2022-10-17T07:51:28;482.60;;;77.63;;
59681;SDS011;45548;39.530;-9.118;2022-10-17T07:53:54;1999.90;;;248.60;;
59681;SDS011;45548;39.530;-9.118;2022-10-17T07:56:19;1208.82;;;161.25;;
59681;SDS011;45548;39.530;-9.118;2022-10-17T07:58:48;1999.90;;;249.27;;
59681;SDS011;45548;39.530;-9.118;2022-10-17T08:01:14;1274.82;;;215.13;;
59681;SDS011;45548;39.530;-9.118;2022-10-17T08:03:40;1073.80;;;179.98;;
59681;SDS011;45548;39.530;-9.118;2022-10-17T08:06:06;543.42;;;89.97;;
59681;SDS011;45548;39.530;-9.118;2022-10-17T08:08:32;962.20;;;217.35;;
59681;SDS011;45548;39.530;-9.118;2022-10-17T08:11:01;1856.88;;;226.98;;
59681;SDS011;45548;39.530;-9.118;2022-10-17T08:13:30;1999.90;;;259.08;;
59681;SDS011;45548;39.530;-9.118;2022-10-17T08:16:00;1152.43;;;173.32;;
59681;SDS011;45548;39.530;-9.118;2022-10-17T08:18:26;692.72;;;128.35;;
59681;SDS011;45548;39.530;-9.118;2022-10-17T08:20:52;1999.90;;;274.08;;
59681;SDS011;45548;39.530;-9.118;2022-10-17T08:23:17;581.80;;;116.05;;
59681;SDS011;45548;39.530;-9.118;2022-10-17T08:25:43;1794.03;;;211.50;;
59681;SDS011;45548;39.530;-9.118;2022-10-17T08:28:08;1999.90;;;312.48;;
59681;SDS011;45548;39.530;-9.118;2022-10-17T08:30:34;1669.18;;;205.60;;
59681;SDS011;45548;39.530;-9.118;2022-10-17T08:33:01;1999.90;;;287.95;;
59681;SDS011;45548;39.530;-9.118;2022-10-17T08:35:26;1477.57;;;197.50;;
59681;SDS011;45548;39.530;-9.118;2022-10-17T08:37:52;1999.90;;;279.48;;
59681;SDS011;45548;39.530;-9.118;2022-10-17T08:40:18;1619.13;;;204.43;;
59681;SDS011;45548;39.530;-9.118;2022-10-17T08:43:27;1388.03;;;180.60;;
59681;SDS011;45548;39.530;-9.118;2022-10-17T08:46:58;1741.55;;;236.52;;
59681;SDS011;45548;39.530;-9.118;2022-10-17T08:50:28;1916.90;;;234.10;;
59681;SDS011;45548;39.530;-9.118;2022-10-17T08:54:00;593.00;;;169.13;;
59681;SDS011;45548;39.530;-9.118;2022-10-17T08:57:27;807.05;;;200.75;;
59681;SDS011;45548;39.530;-9.118;2022-10-17T09:12:15;856.20;;;123.70;;
59681;SDS011;45548;39.530;-9.118;2022-10-17T09:16:13;1999.90;;;304.23;;
59681;SDS011;45548;39.530;-9.118;2022-10-17T09:19:42;1572.75;;;190.68;;
59681;SDS011;45548;39.530;-9.118;2022-10-17T09:23:16;705.47;;;125.60;;
59681;SDS011;45548;39.530;-9.118;2022-10-17T09:26:49;486.23;;;119.15;;
59681;SDS011;45548;39.530;-9.118;2022-10-17T09:33:47;1924.97;;;234.43;;
59681;SDS011;45548;39.530;-9.118;2022-10-17T09:37:12;821.75;;;153.25;;
59681;SDS011;45548;39.530;-9.118;2022-10-17T09:40:39;513.33;;;70.57;;
59681;SDS011;45548;39.530;-9.118;2022-10-17T09:51:31;1203.68;;;169.02;;
59681;SDS011;45548;39.530;-9.118;2022-10-17T09:55:06;1999.90;;;286.15;;
59681;SDS011;45548;39.530;-9.118;2022-10-17T09:58:47;1425.32;;;229.00;;
59681;SDS011;45548;39.530;-9.118;2022-10-17T10:02:22;1999.90;;;292.58;;
59681;SDS011;45548;39.530;-9.118;2022-10-17T10:09:44;1788.75;;;190.25;;
59681;SDS011;45548;39.530;-9.118;2022-10-17T10:16:41;12.60;;;6.80;;
59681;SDS011;45548;39.530;-9.118;2022-10-17T10:27:32;1999.90;;;165.23;;
59681;SDS011;45548;39.530;-9.118;2022-10-17T10:31:07;1368.20;;;181.93;;
59681;SDS011;45548;39.530;-9.118;2022-10-17T10:36:59;1999.90;;;289.42;;
59681;SDS011;45548;39.530;-9.118;2022-10-17T10:39:36;1999.90;;;275.55;;
59681;SDS011;45548;39.530;-9.118;2022-10-17T10:42:25;1999.90;;;340.73;;
59681;SDS011;45548;39.530;-9.118;2022-10-17T10:44:55;1316.47;;;129.38;;
59681;SDS011;45548;39.530;-9.118;2022-10-17T10:47:28;1941.90;;;178.75;;
59681;SDS011;45548;39.530;-9.118;2022-10-17T10:53:04;1999.90;;;339.70;;
59681;SDS011;45548;39.530;-9.118;2022-10-17T10:55:55;1999.90;;;187.00;;
59681;SDS011;45548;39.530;-9.118;2022-10-17T11:01:11;1999.90;;;323.65;;
59681;SDS011;45548;39.530;-9.118;2022-10-17T11:06:26;997.92;;;113.88;;
59681;SDS011;45548;39.530;-9.118;2022-10-17T11:09:04;1999.90;;;257.48;;
59681;SDS011;45548;39.530;-9.118;2022-10-17T11:11:46;1999.90;;;219.02;;
59681;SDS011;45548;39.530;-9.118;2022-10-17T11:14:18;1999.90;;;268.95;;
59681;SDS011;45548;39.530;-9.118;2022-10-17T11:19:35;1999.90;;;356.38;;
59681;SDS011;45548;39.530;-9.118;2022-10-17T11:22:15;1999.90;;;310.47;;
59681;SDS011;45548;39.530;-9.118;2022-10-17T11:24:56;1999.90;;;194.90;;
59681;SDS011;45548;39.530;-9.118;2022-10-17T11:27:29;1999.90;;;261.35;;
59681;SDS011;45548;39.530;-9.118;2022-10-17T11:30:55;1999.90;;;412.88;;
59681;SDS011;45548;39.530;-9.118;2022-10-17T11:34:26;1999.90;;;303.67;;
59681;SDS011;45548;39.530;-9.118;2022-10-17T11:41:13;1999.90;;;245.25;;
59681;SDS011;45548;39.530;-9.118;2022-10-17T11:43:56;1378.13;;;149.27;;
59681;SDS011;45548;39.530;-9.118;2022-10-17T11:50:02;1999.90;;;306.55;;
59681;SDS011;45548;39.530;-9.118;2022-10-17T11:52:44;1999.90;;;262.63;;
59681;SDS011;45548;39.530;-9.118;2022-10-17T11:56:11;1999.90;;;279.58;;
59681;SDS011;45548;39.530;-9.118;2022-10-17T11:59:26;1999.90;;;358.85;;
59681;SDS011;45548;39.530;-9.118;2022-10-17T12:01:55;1999.90;;;312.52;;
59681;SDS011;45548;39.530;-9.118;2022-10-17T12:12:23;1999.90;;;352.77;;
59681;SDS011;45548;39.530;-9.118;2022-10-17T12:14:49;1999.90;;;284.13;;
59681;SDS011;45548;39.530;-9.118;2022-10-17T12:19:46;1999.90;;;302.92;;
59681;SDS011;45548;39.530;-9.118;2022-10-17T12:22:24;1999.90;;;296.27;;
59681;SDS011;45548;39.530;-9.118;2022-10-17T12:24:54;1999.90;;;353.98;;
59681;SDS011;45548;39.530;-9.118;2022-10-17T12:30:13;1999.90;;;327.77;;
59681;SDS011;45548;39.530;-9.118;2022-10-17T12:32:56;1023.22;;;132.88;;
59681;SDS011;45548;39.530;-9.118;2022-10-17T12:35:27;1999.90;;;355.45;;
59681;SDS011;45548;39.530;-9.118;2022-10-17T12:43:18;1530.28;;;149.45;;
59681;SDS011;45548;39.530;-9.118;2022-10-17T12:46:08;1999.90;;;382.67;;
59681;SDS011;45548;39.530;-9.118;2022-10-17T12:51:06;1999.90;;;297.10;;
59681;SDS011;45548;39.530;-9.118;2022-10-17T12:56:04;1999.90;;;332.77;;
59681;SDS011;45548;39.530;-9.118;2022-10-17T12:58:30;1999.90;;;359.98;;
59681;SDS011;45548;39.530;-9.118;2022-10-17T13:00:57;1999.90;;;337.67;;
59681;SDS011;45548;39.530;-9.118;2022-10-17T13:03:30;1999.90;;;309.20;;
59681;SDS011;45548;39.530;-9.118;2022-10-17T13:06:04;1999.90;;;200.73;;
59681;SDS011;45548;39.530;-9.118;2022-10-17T13:08:32;1312.75;;;145.02;;
59681;SDS011;45548;39.530;-9.118;2022-10-17T13:11:01;1999.90;;;386.15;;
59681;SDS011;45548;39.530;-9.118;2022-10-17T13:13:37;1999.90;;;309.70;;
59681;SDS011;45548;39.530;-9.118;2022-10-17T13:16:08;1953.50;;;196.23;;
59681;SDS011;45548;39.530;-9.118;2022-10-17T13:18:51;1999.90;;;347.63;;
59681;SDS011;45548;39.530;-9.118;2022-10-17T13:21:17;1999.90;;;433.15;;
59681;SDS011;45548;39.530;-9.118;2022-10-17T13:23:44;1999.90;;;362.50;;
59681;SDS011;45548;39.530;-9.118;2022-10-17T13:28:39;1999.90;;;236.05;;
59681;SDS011;45548;39.530;-9.118;2022-10-17T13:31:05;1999.90;;;331.15;;
59681;SDS011;45548;39.530;-9.118;2022-10-17T13:33:33;1999.90;;;299.95;;
59681;SDS011;45548;39.530;-9.118;2022-10-17T13:36:03;1999.90;;;327.38;;
59681;SDS011;45548;39.530;-9.118;2022-10-17T13:38:32;1999.90;;;260.88;;
59681;SDS011;45548;39.530;-9.118;2022-10-17T13:41:00;1999.90;;;284.40;;
59681;SDS011;45548;39.530;-9.118;2022-10-17T13:43:27;1999.90;;;362.35;;
59681;SDS011;45548;39.530;-9.118;2022-10-17T13:45:56;1999.90;;;380.00;;
59681;SDS011;45548;39.530;-9.118;2022-10-17T13:48:30;1999.90;;;314.50;;
59681;SDS011;45548;39.530;-9.118;2022-10-17T13:51:01;1999.90;;;340.33;;
59681;SDS011;45548;39.530;-9.118;2022-10-17T13:56:15;1999.90;;;378.92;;
59681;SDS011;45548;39.530;-9.118;2022-10-17T13:58:44;1999.90;;;236.63;;
59681;SDS011;45548;39.530;-9.118;2022-10-17T14:01:14;1999.90;;;305.40;;
59681;SDS011;45548;39.530;-9.118;2022-10-17T14:03:44;1878.80;;;191.20;;
59681;SDS011;45548;39.530;-9.118;2022-10-17T14:08:49;1999.90;;;283.20;;
59681;SDS011;45548;39.530;-9.118;2022-10-17T14:11:30;1999.90;;;278.13;;
59681;SDS011;45548;39.530;-9.118;2022-10-17T14:14:01;1397.13;;;126.53;;
59681;SDS011;45548;39.530;-9.118;2022-10-17T14:16:38;1999.90;;;322.52;;
59681;SDS011;45548;39.530;-9.118;2022-10-17T14:19:05;915.78;;;119.38;;
59681;SDS011;45548;39.530;-9.118;2022-10-17T14:22:22;1999.90;;;396.05;;
59681;SDS011;45548;39.530;-9.118;2022-10-17T14:24:50;1999.90;;;315.10;;
59681;SDS011;45548;39.530;-9.118;2022-10-17T14:27:52;1999.90;;;294.60;;
59681;SDS011;45548;39.530;-9.118;2022-10-17T14:30:31;911.85;;;135.15;;
59681;SDS011;45548;39.530;-9.118;2022-10-17T14:33:00;1302.55;;;151.23;;
59681;SDS011;45548;39.530;-9.118;2022-10-17T14:35:27;1999.90;;;360.77;;
59681;SDS011;45548;39.530;-9.118;2022-10-17T14:37:57;1999.90;;;208.10;;
59681;SDS011;45548;39.530;-9.118;2022-10-17T14:40:29;1999.90;;;339.15;;
59681;SDS011;45548;39.530;-9.118;2022-10-17T14:42:57;1999.90;;;411.95;;
59681;SDS011;45548;39.530;-9.118;2022-10-17T14:48:01;1650.55;;;170.52;;
59681;SDS011;45548;39.530;-9.118;2022-10-17T14:50:29;1999.90;;;376.35;;
59681;SDS011;45548;39.530;-9.118;2022-10-17T14:55:55;1999.90;;;405.38;;
59681;SDS011;45548;39.530;-9.118;2022-10-17T14:58:23;1999.90;;;395.63;;
59681;SDS011;45548;39.530;-9.118;2022-10-17T15:00:51;1999.90;;;399.98;;
59681;SDS011;45548;39.530;-9.118;2022-10-17T15:03:17;1999.90;;;247.35;;
59681;SDS011;45548;39.530;-9.118;2022-10-17T15:05:43;1999.90;;;196.43;;
59681;SDS011;45548;39.530;-9.118;2022-10-17T15:08:14;1999.63;;;178.60;;
59681;SDS011;45548;39.530;-9.118;2022-10-17T15:10:41;1999.90;;;377.23;;
59681;SDS011;45548;39.530;-9.118;2022-10-17T15:13:08;1998.95;;;244.25;;
59681;SDS011;45548;39.530;-9.118;2022-10-17T15:15:34;1932.93;;;208.32;;
59681;SDS011;45548;39.530;-9.118;2022-10-17T15:18:01;1999.90;;;362.23;;
59681;SDS011;45548;39.530;-9.118;2022-10-17T15:20:27;1999.90;;;400.73;;
59681;SDS011;45548;39.530;-9.118;2022-10-17T15:22:54;1999.90;;;386.90;;
59681;SDS011;45548;39.530;-9.118;2022-10-17T15:25:22;1999.90;;;368.17;;
59681;SDS011;45548;39.530;-9.118;2022-10-17T15:27:49;1999.90;;;347.17;;
59681;SDS011;45548;39.530;-9.118;2022-10-17T15:30:21;1569.85;;;156.95;;
59681;SDS011;45548;39.530;-9.118;2022-10-17T15:32:49;1999.90;;;238.98;;
59681;SDS011;45548;39.530;-9.118;2022-10-17T15:35:16;813.50;;;107.25;;
59681;SDS011;45548;39.530;-9.118;2022-10-17T15:37:43;1999.90;;;394.80;;
59681;SDS011;45548;39.530;-9.118;2022-10-17T15:40:15;1999.90;;;323.55;;
59681;SDS011;45548;39.530;-9.118;2022-10-17T15:42:42;1999.90;;;375.90;;
59681;SDS011;45548;39.530;-9.118;2022-10-17T15:45:09;1610.53;;;143.18;;
59681;SDS011;45548;39.530;-9.118;2022-10-17T15:47:42;1999.90;;;678.45;;
59681;SDS011;45548;39.530;-9.118;2022-10-17T15:52:39;1999.90;;;349.60;;
59681;SDS011;45548;39.530;-9.118;2022-10-17T15:55:05;1868.25;;;220.73;;
59681;SDS011;45548;39.530;-9.118;2022-10-17T15:57:33;619.08;;;115.93;;
59681;SDS011;45548;39.530;-9.118;2022-10-17T16:00:04;1712.68;;;173.10;;
59681;SDS011;45548;39.530;-9.118;2022-10-17T16:02:31;1999.90;;;282.63;;
59681;SDS011;45548;39.530;-9.118;2022-10-17T16:04:57;1645.15;;;156.02;;
59681;SDS011;45548;39.530;-9.118;2022-10-17T16:07:23;1999.90;;;382.13;;
59681;SDS011;45548;39.530;-9.118;2022-10-17T16:09:49;1769.60;;;202.60;;
59681;SDS011;45548;39.530;-9.118;2022-10-17T16:12:16;1999.90;;;246.65;;
59681;SDS011;45548;39.530;-9.118;2022-10-17T16:14:43;1999.90;;;337.90;;
59681;SDS011;45548;39.530;-9.118;2022-10-17T16:17:13;1999.90;;;220.40;;
59681;SDS011;45548;39.530;-9.118;2022-10-17T16:19:39;1999.90;;;299.90;;
59681;SDS011;45548;39.530;-9.118;2022-10-17T16:22:05;1999.90;;;234.52;;
59681;SDS011;45548;39.530;-9.118;2022-10-17T16:24:31;1999.90;;;407.38;;
59681;SDS011;45548;39.530;-9.118;2022-10-17T16:26:57;1999.90;;;209.02;;
59681;SDS011;45548;39.530;-9.118;2022-10-17T16:29:22;1999.90;;;405.77;;
59681;SDS011;45548;39.530;-9.118;2022-10-17T16:31:48;1999.90;;;404.85;;
59681;SDS011;45548;39.530;-9.118;2022-10-17T16:34:14;1970.78;;;207.45;;
59681;SDS011;45548;39.530;-9.118;2022-10-17T16:36:40;1999.90;;;376.42;;
59681;SDS011;45548;39.530;-9.118;2022-10-17T16:39:06;1999.90;;;362.80;;
59681;SDS011;45548;39.530;-9.118;2022-10-17T16:41:33;1145.88;;;114.93;;
59681;SDS011;45548;39.530;-9.118;2022-10-17T16:44:03;1999.90;;;355.92;;
59681;SDS011;45548;39.530;-9.118;2022-10-17T16:46:30;1365.47;;;118.47;;
59681;SDS011;45548;39.530;-9.118;2022-10-17T16:48:57;1999.90;;;383.45;;
59681;SDS011;45548;39.530;-9.118;2022-10-17T16:51:23;1999.90;;;399.67;;
59681;SDS011;45548;39.530;-9.118;2022-10-17T16:53:49;1999.90;;;294.17;;
59681;SDS011;45548;39.530;-9.118;2022-10-17T16:56:20;1999.90;;;214.60;;
59681;SDS011;45548;39.530;-9.118;2022-10-17T16:58:47;1999.90;;;445.48;;
59681;SDS011;45548;39.530;-9.118;2022-10-17T17:01:14;1999.90;;;221.13;;
59681;SDS011;45548;39.530;-9.118;2022-10-17T17:03:42;1999.90;;;290.33;;
59681;SDS011;45548;39.530;-9.118;2022-10-17T17:06:12;1999.90;;;348.70;;
59681;SDS011;45548;39.530;-9.118;2022-10-17T17:08:43;1999.90;;;437.45;;
59681;SDS011;45548;39.530;-9.118;2022-10-17T17:11:09;1999.90;;;256.27;;
59681;SDS011;45548;39.530;-9.118;2022-10-17T17:13:36;1999.90;;;412.55;;
59681;SDS011;45548;39.530;-9.118;2022-10-17T17:16:09;1999.90;;;437.83;;
59681;SDS011;45548;39.530;-9.118;2022-10-17T17:18:36;1999.90;;;296.45;;
59681;SDS011;45548;39.530;-9.118;2022-10-17T17:21:04;1999.90;;;266.05;;
59681;SDS011;45548;39.530;-9.118;2022-10-17T17:23:31;1979.97;;;182.73;;
59681;SDS011;45548;39.530;-9.118;2022-10-17T17:25:59;1999.90;;;337.85;;
59681;SDS011;45548;39.530;-9.118;2022-10-17T17:28:26;1999.90;;;282.02;;
59681;SDS011;45548;39.530;-9.118;2022-10-17T17:30:53;1912.65;;;149.88;;
59681;SDS011;45548;39.530;-9.118;2022-10-17T17:33:19;1999.90;;;229.98;;
59681;SDS011;45548;39.530;-9.118;2022-10-17T17:35:45;1408.03;;;108.13;;
59681;SDS011;45548;39.530;-9.118;2022-10-17T17:38:11;1363.90;;;133.77;;
59681;SDS011;45548;39.530;-9.118;2022-10-17T17:40:42;804.88;;;83.20;;
59681;SDS011;45548;39.530;-9.118;2022-10-17T17:43:08;492.67;;;73.93;;
59681;SDS011;45548;39.530;-9.118;2022-10-17T17:45:34;844.75;;;72.63;;
59681;SDS011;45548;39.530;-9.118;2022-10-17T17:47:59;636.08;;;111.53;;
59681;SDS011;45548;39.530;-9.118;2022-10-17T17:50:25;901.70;;;92.05;;
59681;SDS011;45548;39.530;-9.118;2022-10-17T17:52:50;561.28;;;110.47;;
59681;SDS011;45548;39.530;-9.118;2022-10-17T17:55:16;730.00;;;84.65;;
59681;SDS011;45548;39.530;-9.118;2022-10-17T17:57:41;387.80;;;69.45;;
59681;SDS011;45548;39.530;-9.118;2022-10-17T18:00:07;342.40;;;44.17;;
59681;SDS011;45548;39.530;-9.118;2022-10-17T18:02:33;777.38;;;147.95;;
59681;SDS011;45548;39.530;-9.118;2022-10-17T18:04:59;531.33;;;67.10;;
59681;SDS011;45548;39.530;-9.118;2022-10-17T18:07:25;869.33;;;96.25;;
59681;SDS011;45548;39.530;-9.118;2022-10-17T18:09:50;494.75;;;90.38;;
59681;SDS011;45548;39.530;-9.118;2022-10-17T18:12:16;722.60;;;113.13;;
59681;SDS011;45548;39.530;-9.118;2022-10-17T18:14:42;237.25;;;50.88;;
59681;SDS011;45548;39.530;-9.118;2022-10-17T18:17:07;431.85;;;75.45;;
59681;SDS011;45548;39.530;-9.118;2022-10-17T18:19:33;940.63;;;141.07;;
59681;SDS011;45548;39.530;-9.118;2022-10-17T18:21:58;945.78;;;116.00;;
59681;SDS011;45548;39.530;-9.118;2022-10-17T18:24:24;598.22;;;105.50;;
59681;SDS011;45548;39.530;-9.118;2022-10-17T18:26:50;629.17;;;154.65;;
59681;SDS011;45548;39.530;-9.118;2022-10-17T18:29:18;338.20;;;138.43;;
59681;SDS011;45548;39.530;-9.118;2022-10-17T18:31:43;498.80;;;260.73;;
59681;SDS011;45548;39.530;-9.118;2022-10-17T18:34:09;355.58;;;117.43;;
59681;SDS011;45548;39.530;-9.118;2022-10-17T18:36:35;413.52;;;169.57;;
59681;SDS011;45548;39.530;-9.118;2022-10-17T18:39:02;280.13;;;111.10;;
59681;SDS011;45548;39.530;-9.118;2022-10-17T18:41:28;148.35;;;66.55;;
59681;SDS011;45548;39.530;-9.118;2022-10-17T18:43:55;533.17;;;231.95;;
59681;SDS011;45548;39.530;-9.118;2022-10-17T18:46:22;73.88;;;32.20;;
59681;SDS011;45548;39.530;-9.118;2022-10-17T18:48:49;376.17;;;236.15;;
59681;SDS011;45548;39.530;-9.118;2022-10-17T18:51:16;389.95;;;191.30;;
59681;SDS011;45548;39.530;-9.118;2022-10-17T18:53:44;471.83;;;178.75;;
59681;SDS011;45548;39.530;-9.118;2022-10-17T18:56:11;671.92;;;273.77;;
59681;SDS011;45548;39.530;-9.118;2022-10-17T18:58:37;574.58;;;319.77;;
59681;SDS011;45548;39.530;-9.118;2022-10-17T19:01:04;481.70;;;202.73;;
59681;SDS011;45548;39.530;-9.118;2022-10-17T19:03:31;165.82;;;72.10;;
59681;SDS011;45548;39.530;-9.118;2022-10-17T19:06:04;676.40;;;285.90;;
59681;SDS011;45548;39.530;-9.118;2022-10-17T19:08:31;238.23;;;94.53;;
59681;SDS011;45548;39.530;-9.118;2022-10-17T19:11:03;29.80;;;11.00;;
59681;SDS011;45548;39.530;-9.118;2022-10-17T19:13:49;335.17;;;158.63;;
59681;SDS011;45548;39.530;-9.118;2022-10-17T19:16:20;36.40;;;18.60;;
59681;SDS011;45548;39.530;-9.118;2022-10-17T19:19:01;87.13;;;23.95;;
59681;SDS011;45548;39.530;-9.118;2022-10-17T19:21:36;111.85;;;49.38;;
59681;SDS011;45548;39.530;-9.118;2022-10-17T19:24:02;414.50;;;216.52;;
59681;SDS011;45548;39.530;-9.118;2022-10-17T19:26:33;357.10;;;141.57;;
59681;SDS011;45548;39.530;-9.118;2022-10-17T19:29:00;429.23;;;187.77;;
59681;SDS011;45548;39.530;-9.118;2022-10-17T19:31:27;131.70;;;55.97;;
59681;SDS011;45548;39.530;-9.118;2022-10-17T19:33:54;43.08;;;19.27;;
59681;SDS011;45548;39.530;-9.118;2022-10-17T19:36:21;188.55;;;80.50;;
59681;SDS011;45548;39.530;-9.118;2022-10-17T19:38:51;386.70;;;199.20;;
59681;SDS011;45548;39.530;-9.118;2022-10-17T19:41:17;30.70;;;13.48;;
59681;SDS011;45548;39.530;-9.118;2022-10-17T19:43:43;70.50;;;32.58;;
59681;SDS011;45548;39.530;-9.118;2022-10-17T19:46:11;218.60;;;108.72;;
59681;SDS011;45548;39.530;-9.118;2022-10-17T19:48:38;230.80;;;110.13;;
59681;SDS011;45548;39.530;-9.118;2022-10-17T19:51:09;612.85;;;309.23;;
59681;SDS011;45548;39.530;-9.118;2022-10-17T19:53:38;253.80;;;118.53;;
59681;SDS011;45548;39.530;-9.118;2022-10-17T19:56:03;125.95;;;66.07;;
59681;SDS011;45548;39.530;-9.118;2022-10-17T19:58:29;391.40;;;131.95;;
59681;SDS011;45548;39.530;-9.118;2022-10-17T20:00:57;338.33;;;155.45;;
59681;SDS011;45548;39.530;-9.118;2022-10-17T20:03:27;575.00;;;188.13;;
59681;SDS011;45548;39.530;-9.118;2022-10-17T20:05:53;305.85;;;139.88;;
59681;SDS011;45548;39.530;-9.118;2022-10-17T20:08:19;690.80;;;257.05;;
59681;SDS011;45548;39.530;-9.118;2022-10-17T20:10:45;321.50;;;93.45;;
59681;SDS011;45548;39.530;-9.118;2022-10-17T20:13:10;291.40;;;107.43;;
59681;SDS011;45548;39.530;-9.118;2022-10-17T20:15:37;447.63;;;119.40;;
59681;SDS011;45548;39.530;-9.118;2022-10-17T20:18:03;613.85;;;175.23;;
59681;SDS011;45548;39.530;-9.118;2022-10-17T20:20:29;307.83;;;81.93;;
59681;SDS011;45548;39.530;-9.118;2022-10-17T20:22:55;441.90;;;115.15;;
59681;SDS011;45548;39.530;-9.118;2022-10-17T20:25:21;214.70;;;82.50;;
59681;SDS011;45548;39.530;-9.118;2022-10-17T20:27:47;501.50;;;167.88;;
59681;SDS011;45548;39.530;-9.118;2022-10-17T20:30:12;627.83;;;239.75;;
59681;SDS011;45548;39.530;-9.118;2022-10-17T20:32:38;293.63;;;131.63;;
59681;SDS011;45548;39.530;-9.118;2022-10-17T20:35:04;289.88;;;148.73;;
59681;SDS011;45548;39.530;-9.118;2022-10-17T20:37:35;254.63;;;138.98;;
59681;SDS011;45548;39.530;-9.118;2022-10-17T20:40:01;295.60;;;192.95;;
59681;SDS011;45548;39.530;-9.118;2022-10-17T20:42:28;42.25;;;18.45;;
59681;SDS011;45548;39.530;-9.118;2022-10-17T20:44:54;235.77;;;165.35;;
59681;SDS011;45548;39.530;-9.118;2022-10-17T20:47:20;794.58;;;238.05;;
59681;SDS011;45548;39.530;-9.118;2022-10-17T20:49:46;486.95;;;174.27;;
59681;SDS011;45548;39.530;-9.118;2022-10-17T20:52:11;320.00;;;114.65;;
59681;SDS011;45548;39.530;-9.118;2022-10-17T20:54:37;437.13;;;161.50;;
59681;SDS011;45548;39.530;-9.118;2022-10-17T20:57:03;216.20;;;71.40;;
59681;SDS011;45548;39.530;-9.118;2022-10-17T20:59:28;356.00;;;144.50;;
59681;SDS011;45548;39.530;-9.118;2022-10-17T21:01:55;370.88;;;133.40;;
59681;SDS011;45548;39.530;-9.118;2022-10-17T21:04:20;476.27;;;222.80;;
59681;SDS011;45548;39.530;-9.118;2022-10-17T21:06:46;24.50;;;9.18;;
59681;SDS011;45548;39.530;-9.118;2022-10-17T21:09:12;364.60;;;201.95;;
59681;SDS011;45548;39.530;-9.118;2022-10-17T21:11:38;17.40;;;7.03;;
59681;SDS011;45548;39.530;-9.118;2022-10-17T21:14:05;322.30;;;175.75;;
59681;SDS011;45548;39.530;-9.118;2022-10-17T21:16:33;701.78;;;279.67;;
59681;SDS011;45548;39.530;-9.118;2022-10-17T21:19:00;205.90;;;132.95;;
59681;SDS011;45548;39.530;-9.118;2022-10-17T21:21:27;271.75;;;125.40;;
59681;SDS011;45548;39.530;-9.118;2022-10-17T21:23:59;336.85;;;208.30;;
59681;SDS011;45548;39.530;-9.118;2022-10-17T21:26:33;118.43;;;58.70;;
59681;SDS011;45548;39.530;-9.118;2022-10-17T21:29:01;471.57;;;187.87;;
59681;SDS011;45548;39.530;-9.118;2022-10-17T21:31:30;222.07;;;150.40;;
59681;SDS011;45548;39.530;-9.118;2022-10-17T21:34:04;222.65;;;106.85;;
